Aline, OK

2:08 PM CDT on September 04, 2015 (GMT -0500)
APRSWXNET | | Change Station
CLOSE
Current Station
Personal Weather Station
Location: Cherokee, OK
Elevation: 1233 ft
Nearby Weather Stations

Elev 1233 ft 36.77 °N, 98.42 °W | Updated 26 minutes ago

Clear
Clear
95 °F
Feels Like 100 °F
N
15
Wind Variable Wind from South
Gusts 0.0 mph

Today
High -- | Low -- °F
--% Chance of Precip.
Yesterday
High -- | Low -- °F
Precip. -- in
7:07 AM 7:57 PM
Waning Gibbous, 57% visible
Pressure 29.92 in
Visibility 8.0 miles
Clouds Clear
Heat Index 100 °F
Dew Point 68 °F
Humidity 42%
Rainfall in
Snow Depth Not available.
UV 10 out of 12
Pollen 10.40 out of 12
Air Quality Not available.
Flu Activity Not available.
METAR KAVK 041850Z AUTO 17016G19KT 8SM CLR 35/18 A2992 RMK AO2
Pressure 29.92 in
Visibility 8.0 miles
Clouds Clear
Heat Index 100 °F
Dew Point 68 °F
Humidity 42%
Rainfall in
Snow Depth Not available.
UV 10 out of 12
Pollen 10.40 out of 12
Air Quality Not available.
Flu Activity Not available.
METAR KAVK 041850Z AUTO 17016G19KT 8SM CLR 35/18 A2992 RMK AO2

10-Day Weather Forecast

×

Almanac

Astronomy

Sep. 04, 2015 Rise Set
Actual Time
Civil Twilight
Nautical Twilight
Astronomical Twilight
Moon
Length of Visible Light
Length of Day
Tomorrow will be .
, % of the Moon is Illuminated

Today's Extremes

State Highs State Lows

Community

WunderPhotos

Upload Photos

1,852,267 photos uploaded!

WunderBlogs® & News

Nearby

Air Quality

  Air Quality AQ Index Pollutant
Not available.

Snow Depth

Station Depth Elevation

Earthquake Activity

City Distance Mag. Time & Date
Minimum magnitude displayed is 2.5.

Coastal Water Temperatures

Place Temperature

Stations

Nearby Weather Stations

Station Location Temp. Windchill Dew Point Humidity Wind Precip. Elev Updated Type